sensor_id;sensor_type;location;lat;lon;timestamp;temperature;humidity
8152;DHT22;4117;53.622;9.958;2022-12-18T00:02:08;-6.00;22.10
8152;DHT22;4117;53.622;9.958;2022-12-18T00:04:34;-6.00;22.00
8152;DHT22;4117;53.622;9.958;2022-12-18T00:07:02;-6.00;21.30
8152;DHT22;4117;53.622;9.958;2022-12-18T00:09:29;-6.00;21.50
8152;DHT22;4117;53.622;9.958;2022-12-18T00:11:56;-6.00;21.10
8152;DHT22;4117;53.622;9.958;2022-12-18T00:14:22;-6.00;19.30
8152;DHT22;4117;53.622;9.958;2022-12-18T00:16:51;-6.00;17.50
8152;DHT22;4117;53.622;9.958;2022-12-18T00:19:18;-6.10;21.60
8152;DHT22;4117;53.622;9.958;2022-12-18T00:21:45;-6.10;21.00
8152;DHT22;4117;53.622;9.958;2022-12-18T00:24:12;-6.10;22.10
8152;DHT22;4117;53.622;9.958;2022-12-18T00:26:41;-6.10;21.20
8152;DHT22;4117;53.622;9.958;2022-12-18T00:29:11;-6.10;22.00
8152;DHT22;4117;53.622;9.958;2022-12-18T00:31:40;-6.10;22.10
8152;DHT22;4117;53.622;9.958;2022-12-18T00:34:09;-6.10;20.90
8152;DHT22;4117;53.622;9.958;2022-12-18T00:36:36;-6.10;22.10
8152;DHT22;4117;53.622;9.958;2022-12-18T00:39:04;-6.20;17.90
8152;DHT22;4117;53.622;9.958;2022-12-18T00:41:32;-6.20;17.70
8152;DHT22;4117;53.622;9.958;2022-12-18T00:44:17;-6.20;21.70
8152;DHT22;4117;53.622;9.958;2022-12-18T00:46:46;-6.20;21.70
8152;DHT22;4117;53.622;9.958;2022-12-18T00:49:15;-6.20;18.70
8152;DHT22;4117;53.622;9.958;2022-12-18T00:51:42;-6.20;19.70
8152;DHT22;4117;53.622;9.958;2022-12-18T00:54:10;-6.20;18.70
8152;DHT22;4117;53.622;9.958;2022-12-18T00:56:38;-6.30;19.40
8152;DHT22;4117;53.622;9.958;2022-12-18T00:59:06;-6.30;19.70
8152;DHT22;4117;53.622;9.958;2022-12-18T01:01:33;-6.30;19.00
8152;DHT22;4117;53.622;9.958;2022-12-18T01:04:00;-6.30;17.50
8152;DHT22;4117;53.622;9.958;2022-12-18T01:06:29;-6.30;17.00
8152;DHT22;4117;53.622;9.958;2022-12-18T01:08:56;-6.30;17.00
8152;DHT22;4117;53.622;9.958;2022-12-18T01:11:24;-6.40;15.00
8152;DHT22;4117;53.622;9.958;2022-12-18T01:13:52;-6.40;17.10
8152;DHT22;4117;53.622;9.958;2022-12-18T01:16:19;-6.40;18.80
8152;DHT22;4117;53.622;9.958;2022-12-18T01:18:46;-6.40;18.20
8152;DHT22;4117;53.622;9.958;2022-12-18T01:21:14;-6.40;18.40
8152;DHT22;4117;53.622;9.958;2022-12-18T01:23:43;-6.40;18.50
8152;DHT22;4117;53.622;9.958;2022-12-18T01:26:11;-6.40;18.50
8152;DHT22;4117;53.622;9.958;2022-12-18T01:28:38;-6.40;19.10
8152;DHT22;4117;53.622;9.958;2022-12-18T01:31:14;-6.40;19.90
8152;DHT22;4117;53.622;9.958;2022-12-18T01:33:41;-6.40;19.50
8152;DHT22;4117;53.622;9.958;2022-12-18T01:36:08;-6.40;19.20
8152;DHT22;4117;53.622;9.958;2022-12-18T01:38:35;-6.50;18.20
8152;DHT22;4117;53.622;9.958;2022-12-18T01:41:03;-6.50;18.40
8152;DHT22;4117;53.622;9.958;2022-12-18T01:43:49;-6.50;18.40
8152;DHT22;4117;53.622;9.958;2022-12-18T01:46:18;-6.50;17.70
8152;DHT22;4117;53.622;9.958;2022-12-18T01:48:46;-6.50;19.10
8152;DHT22;4117;53.622;9.958;2022-12-18T01:51:14;-6.50;19.20
8152;DHT22;4117;53.622;9.958;2022-12-18T01:53:42;-6.50;18.70
8152;DHT22;4117;53.622;9.958;2022-12-18T01:56:14;-6.50;18.10
8152;DHT22;4117;53.622;9.958;2022-12-18T01:58:49;-6.50;17.50
8152;DHT22;4117;53.622;9.958;2022-12-18T02:01:16;-6.50;16.90
8152;DHT22;4117;53.622;9.958;2022-12-18T02:03:44;-6.60;16.90
8152;DHT22;4117;53.622;9.958;2022-12-18T02:06:16;-6.50;17.30
8152;DHT22;4117;53.622;9.958;2022-12-18T02:08:50;-6.60;17.60
8152;DHT22;4117;53.622;9.958;2022-12-18T02:11:27;-6.60;19.00
8152;DHT22;4117;53.622;9.958;2022-12-18T02:14:04;-6.50;20.60
8152;DHT22;4117;53.622;9.958;2022-12-18T02:16:38;-6.40;22.40
8152;DHT22;4117;53.622;9.958;2022-12-18T02:19:15;-6.30;24.70
8152;DHT22;4117;53.622;9.958;2022-12-18T02:21:49;-6.20;24.30
8152;DHT22;4117;53.622;9.958;2022-12-18T02:24:29;-6.20;22.80
8152;DHT22;4117;53.622;9.958;2022-12-18T02:27:00;-6.20;24.60
8152;DHT22;4117;53.622;9.958;2022-12-18T02:29:33;-6.20;26.90
8152;DHT22;4117;53.622;9.958;2022-12-18T02:32:02;-6.20;26.90
8152;DHT22;4117;53.622;9.958;2022-12-18T02:34:33;-6.10;27.00
8152;DHT22;4117;53.622;9.958;2022-12-18T02:37:06;-6.00;27.00
8152;DHT22;4117;53.622;9.958;2022-12-18T02:39:36;-6.00;27.00
8152;DHT22;4117;53.622;9.958;2022-12-18T02:42:05;-6.00;27.00
8152;DHT22;4117;53.622;9.958;2022-12-18T02:44:33;-6.10;27.00
8152;DHT22;4117;53.622;9.958;2022-12-18T02:47:01;-6.10;27.00
8152;DHT22;4117;53.622;9.958;2022-12-18T02:49:34;-6.10;27.00
8152;DHT22;4117;53.622;9.958;2022-12-18T02:52:08;-6.10;27.00
8152;DHT22;4117;53.622;9.958;2022-12-18T02:54:52;-6.20;26.90
8152;DHT22;4117;53.622;9.958;2022-12-18T02:57:28;-6.20;26.20
8152;DHT22;4117;53.622;9.958;2022-12-18T03:00:03;-6.20;26.80
8152;DHT22;4117;53.622;9.958;2022-12-18T03:02:36;-6.20;26.00
8152;DHT22;4117;53.622;9.958;2022-12-18T03:05:09;-6.20;22.10
8152;DHT22;4117;53.622;9.958;2022-12-18T03:07:42;-6.20;20.80
8152;DHT22;4117;53.622;9.958;2022-12-18T03:10:13;-6.30;20.20
8152;DHT22;4117;53.622;9.958;2022-12-18T03:12:46;-6.30;22.80
8152;DHT22;4117;53.622;9.958;2022-12-18T03:15:19;-6.30;22.00
8152;DHT22;4117;53.622;9.958;2022-12-18T03:17:52;-6.40;17.40
8152;DHT22;4117;53.622;9.958;2022-12-18T03:20:21;-6.50;19.60
8152;DHT22;4117;53.622;9.958;2022-12-18T03:22:51;-6.50;21.10
8152;DHT22;4117;53.622;9.958;2022-12-18T03:25:20;-6.40;21.10
8152;DHT22;4117;53.622;9.958;2022-12-18T03:27:52;-6.50;20.10
8152;DHT22;4117;53.622;9.958;2022-12-18T03:30:20;-6.50;19.80
8152;DHT22;4117;53.622;9.958;2022-12-18T03:32:50;-6.50;19.20
8152;DHT22;4117;53.622;9.958;2022-12-18T03:35:22;-6.50;20.50
8152;DHT22;4117;53.622;9.958;2022-12-18T03:37:50;-6.50;20.60
8152;DHT22;4117;53.622;9.958;2022-12-18T03:40:19;-6.60;18.20
8152;DHT22;4117;53.622;9.958;2022-12-18T03:42:52;-6.70;17.30
8152;DHT22;4117;53.622;9.958;2022-12-18T03:45:26;-6.70;17.00
8152;DHT22;4117;53.622;9.958;2022-12-18T03:47:59;-6.60;19.40
8152;DHT22;4117;53.622;9.958;2022-12-18T03:50:36;-6.70;18.00
8152;DHT22;4117;53.622;9.958;2022-12-18T03:53:12;-6.70;17.00
8152;DHT22;4117;53.622;9.958;2022-12-18T03:55:41;-6.80;16.70
8152;DHT22;4117;53.622;9.958;2022-12-18T03:58:11;-6.70;17.30
8152;DHT22;4117;53.622;9.958;2022-12-18T04:00:40;-6.70;16.80
8152;DHT22;4117;53.622;9.958;2022-12-18T04:03:07;-6.80;16.70
8152;DHT22;4117;53.622;9.958;2022-12-18T04:05:36;-6.80;16.70
8152;DHT22;4117;53.622;9.958;2022-12-18T04:08:04;-6.80;16.80
8152;DHT22;4117;53.622;9.958;2022-12-18T04:10:31;-6.80;16.80
8152;DHT22;4117;53.622;9.958;2022-12-18T04:13:00;-6.80;17.60
8152;DHT22;4117;53.622;9.958;2022-12-18T04:15:29;-6.80;17.60
8152;DHT22;4117;53.622;9.958;2022-12-18T04:17:56;-6.80;18.20
8152;DHT22;4117;53.622;9.958;2022-12-18T04:20:23;-6.80;18.50
8152;DHT22;4117;53.622;9.958;2022-12-18T04:22:50;-6.80;18.90
8152;DHT22;4117;53.622;9.958;2022-12-18T04:25:16;-6.70;19.60
8152;DHT22;4117;53.622;9.958;2022-12-18T04:27:43;-6.80;20.70
8152;DHT22;4117;53.622;9.958;2022-12-18T04:30:11;-6.80;19.40
8152;DHT22;4117;53.622;9.958;2022-12-18T04:32:39;-6.70;19.10
8152;DHT22;4117;53.622;9.958;2022-12-18T04:35:07;-6.80;16.40
8152;DHT22;4117;53.622;9.958;2022-12-18T04:37:36;-6.80;18.10
8152;DHT22;4117;53.622;9.958;2022-12-18T04:40:03;-6.80;18.70
8152;DHT22;4117;53.622;9.958;2022-12-18T04:42:30;-6.80;19.60
8152;DHT22;4117;53.622;9.958;2022-12-18T04:44:57;-6.80;20.20
8152;DHT22;4117;53.622;9.958;2022-12-18T04:47:24;-6.80;20.10
8152;DHT22;4117;53.622;9.958;2022-12-18T04:49:52;-6.80;20.70
8152;DHT22;4117;53.622;9.958;2022-12-18T04:52:19;-6.80;20.00
8152;DHT22;4117;53.622;9.958;2022-12-18T04:54:46;-6.80;20.20
8152;DHT22;4117;53.622;9.958;2022-12-18T04:57:13;-6.80;20.60
8152;DHT22;4117;53.622;9.958;2022-12-18T04:59:40;-6.80;19.30
8152;DHT22;4117;53.622;9.958;2022-12-18T05:02:07;-6.90;16.70
8152;DHT22;4117;53.622;9.958;2022-12-18T05:04:34;-6.90;18.20
8152;DHT22;4117;53.622;9.958;2022-12-18T05:07:03;-6.90;19.30
8152;DHT22;4117;53.622;9.958;2022-12-18T05:09:30;-6.90;20.00
8152;DHT22;4117;53.622;9.958;2022-12-18T05:11:56;-6.80;20.90
8152;DHT22;4117;53.622;9.958;2022-12-18T05:14:23;-6.80;21.50
8152;DHT22;4117;53.622;9.958;2022-12-18T05:16:50;-6.80;21.50
8152;DHT22;4117;53.622;9.958;2022-12-18T05:19:17;-6.80;21.70
8152;DHT22;4117;53.622;9.958;2022-12-18T05:21:44;-6.80;21.70
8152;DHT22;4117;53.622;9.958;2022-12-18T05:24:12;-6.80;20.90
8152;DHT22;4117;53.622;9.958;2022-12-18T05:26:39;-6.90;19.20
8152;DHT22;4117;53.622;9.958;2022-12-18T05:29:06;-6.90;20.20
8152;DHT22;4117;53.622;9.958;2022-12-18T05:31:33;-6.90;20.40
8152;DHT22;4117;53.622;9.958;2022-12-18T05:34:00;-6.90;20.60
8152;DHT22;4117;53.622;9.958;2022-12-18T05:36:27;-6.90;17.30
8152;DHT22;4117;53.622;9.958;2022-12-18T05:38:54;-6.90;20.80
8152;DHT22;4117;53.622;9.958;2022-12-18T05:41:22;-6.80;21.70
8152;DHT22;4117;53.622;9.958;2022-12-18T05:43:49;-6.90;21.70
8152;DHT22;4117;53.622;9.958;2022-12-18T05:46:17;-6.80;22.20
8152;DHT22;4117;53.622;9.958;2022-12-18T05:48:44;-6.80;21.70
8152;DHT22;4117;53.622;9.958;2022-12-18T05:51:13;-6.80;20.70
8152;DHT22;4117;53.622;9.958;2022-12-18T05:53:40;-6.90;21.60
8152;DHT22;4117;53.622;9.958;2022-12-18T05:56:09;-6.90;16.80
8152;DHT22;4117;53.622;9.958;2022-12-18T05:58:38;-6.90;19.90
8152;DHT22;4117;53.622;9.958;2022-12-18T06:01:10;-6.90;20.40
8152;DHT22;4117;53.622;9.958;2022-12-18T06:03:37;-6.90;19.80
8152;DHT22;4117;53.622;9.958;2022-12-18T06:06:13;-6.90;19.80
8152;DHT22;4117;53.622;9.958;2022-12-18T06:08:40;-6.90;19.50
8152;DHT22;4117;53.622;9.958;2022-12-18T06:11:07;-6.90;20.50
8152;DHT22;4117;53.622;9.958;2022-12-18T06:13:34;-7.00;19.40
8152;DHT22;4117;53.622;9.958;2022-12-18T06:16:03;-6.90;20.70
8152;DHT22;4117;53.622;9.958;2022-12-18T06:18:30;-7.00;16.60
8152;DHT22;4117;53.622;9.958;2022-12-18T06:20:58;-7.00;17.40
8152;DHT22;4117;53.622;9.958;2022-12-18T06:23:25;-6.90;18.10
8152;DHT22;4117;53.622;9.958;2022-12-18T06:25:52;-6.90;16.90
8152;DHT22;4117;53.622;9.958;2022-12-18T06:28:19;-6.90;18.10
8152;DHT22;4117;53.622;9.958;2022-12-18T06:30:47;-6.90;18.00
8152;DHT22;4117;53.622;9.958;2022-12-18T06:33:16;-6.80;18.90
8152;DHT22;4117;53.622;9.958;2022-12-18T06:35:43;-6.80;22.20
8152;DHT22;4117;53.622;9.958;2022-12-18T06:38:10;-6.80;21.80
8152;DHT22;4117;53.622;9.958;2022-12-18T06:40:38;-6.80;21.70
8152;DHT22;4117;53.622;9.958;2022-12-18T06:43:05;-6.80;21.20
8152;DHT22;4117;53.622;9.958;2022-12-18T06:45:33;-6.80;21.60
8152;DHT22;4117;53.622;9.958;2022-12-18T06:48:00;-6.80;21.30
8152;DHT22;4117;53.622;9.958;2022-12-18T06:50:28;-6.80;21.50
8152;DHT22;4117;53.622;9.958;2022-12-18T06:52:55;-6.80;21.40
8152;DHT22;4117;53.622;9.958;2022-12-18T06:55:22;-6.80;21.70
8152;DHT22;4117;53.622;9.958;2022-12-18T06:57:49;-6.80;21.70
8152;DHT22;4117;53.622;9.958;2022-12-18T07:00:16;-6.90;20.70
8152;DHT22;4117;53.622;9.958;2022-12-18T07:02:43;-6.90;20.80
8152;DHT22;4117;53.622;9.958;2022-12-18T07:05:10;-6.90;21.60
8152;DHT22;4117;53.622;9.958;2022-12-18T07:07:38;-6.80;21.90
8152;DHT22;4117;53.622;9.958;2022-12-18T07:10:06;-6.80;21.80
8152;DHT22;4117;53.622;9.958;2022-12-18T07:12:33;-6.80;21.70
8152;DHT22;4117;53.622;9.958;2022-12-18T07:15:00;-6.80;22.10
8152;DHT22;4117;53.622;9.958;2022-12-18T07:17:27;-6.70;24.10
8152;DHT22;4117;53.622;9.958;2022-12-18T07:19:55;-6.70;24.00
8152;DHT22;4117;53.622;9.958;2022-12-18T07:22:22;-6.60;26.70
8152;DHT22;4117;53.622;9.958;2022-12-18T07:24:50;-6.60;23.10
8152;DHT22;4117;53.622;9.958;2022-12-18T07:27:17;-6.60;24.00
8152;DHT22;4117;53.622;9.958;2022-12-18T07:29:44;-6.60;24.00
8152;DHT22;4117;53.622;9.958;2022-12-18T07:32:11;-6.50;23.20
8152;DHT22;4117;53.622;9.958;2022-12-18T07:34:38;-6.50;24.50
8152;DHT22;4117;53.622;9.958;2022-12-18T07:37:05;-6.50;23.50
8152;DHT22;4117;53.622;9.958;2022-12-18T07:39:32;-6.60;23.20
8152;DHT22;4117;53.622;9.958;2022-12-18T07:42:01;-6.50;25.10
8152;DHT22;4117;53.622;9.958;2022-12-18T07:44:45;-6.50;24.70
8152;DHT22;4117;53.622;9.958;2022-12-18T07:47:12;-6.50;24.80
8152;DHT22;4117;53.622;9.958;2022-12-18T07:49:39;-6.50;24.30
8152;DHT22;4117;53.622;9.958;2022-12-18T07:52:06;-6.50;23.30
8152;DHT22;4117;53.622;9.958;2022-12-18T07:54:33;-6.50;23.30
8152;DHT22;4117;53.622;9.958;2022-12-18T07:57:02;-6.50;23.70
8152;DHT22;4117;53.622;9.958;2022-12-18T07:59:29;-6.40;23.80
8152;DHT22;4117;53.622;9.958;2022-12-18T08:01:56;-6.50;23.00
8152;DHT22;4117;53.622;9.958;2022-12-18T08:04:23;-6.50;22.50
8152;DHT22;4117;53.622;9.958;2022-12-18T08:06:49;-6.50;22.60
8152;DHT22;4117;53.622;9.958;2022-12-18T08:09:17;-6.50;24.50
8152;DHT22;4117;53.622;9.958;2022-12-18T08:11:44;-6.60;23.70
8152;DHT22;4117;53.622;9.958;2022-12-18T08:14:12;-6.60;24.40
8152;DHT22;4117;53.622;9.958;2022-12-18T08:16:40;-6.60;25.50
8152;DHT22;4117;53.622;9.958;2022-12-18T08:19:07;-6.60;25.50
8152;DHT22;4117;53.622;9.958;2022-12-18T08:21:37;-6.50;25.80
8152;DHT22;4117;53.622;9.958;2022-12-18T08:24:08;-6.50;26.20
8152;DHT22;4117;53.622;9.958;2022-12-18T08:26:36;-6.50;26.70
8152;DHT22;4117;53.622;9.958;2022-12-18T08:29:03;-6.50;26.80
8152;DHT22;4117;53.622;9.958;2022-12-18T08:31:31;-6.50;26.70
8152;DHT22;4117;53.622;9.958;2022-12-18T08:33:58;-6.50;26.40
8152;DHT22;4117;53.622;9.958;2022-12-18T08:36:25;-6.50;26.70
8152;DHT22;4117;53.622;9.958;2022-12-18T08:38:52;-6.40;26.80
8152;DHT22;4117;53.622;9.958;2022-12-18T08:41:19;-6.40;27.40
8152;DHT22;4117;53.622;9.958;2022-12-18T08:43:46;-6.30;28.10
8152;DHT22;4117;53.622;9.958;2022-12-18T08:46:37;-6.30;29.30
8152;DHT22;4117;53.622;9.958;2022-12-18T08:49:06;-6.30;26.90
8152;DHT22;4117;53.622;9.958;2022-12-18T08:51:33;-6.30;28.10
8152;DHT22;4117;53.622;9.958;2022-12-18T08:54:00;-6.20;29.70
8152;DHT22;4117;53.622;9.958;2022-12-18T08:56:27;-6.20;29.40
8152;DHT22;4117;53.622;9.958;2022-12-18T08:58:56;-6.20;27.90
8152;DHT22;4117;53.622;9.958;2022-12-18T09:01:23;-6.10;28.90
8152;DHT22;4117;53.622;9.958;2022-12-18T09:03:51;-6.10;30.90
8152;DHT22;4117;53.622;9.958;2022-12-18T09:06:20;-6.00;27.00
8152;DHT22;4117;53.622;9.958;2022-12-18T09:08:47;-6.00;29.80
8152;DHT22;4117;53.622;9.958;2022-12-18T09:11:19;-6.00;33.50
8152;DHT22;4117;53.622;9.958;2022-12-18T09:13:46;-5.90;30.10
8152;DHT22;4117;53.622;9.958;2022-12-18T09:16:14;-5.90;27.10
8152;DHT22;4117;53.622;9.958;2022-12-18T09:18:41;-5.90;29.90
8152;DHT22;4117;53.622;9.958;2022-12-18T09:21:11;-5.80;30.30
8152;DHT22;4117;53.622;9.958;2022-12-18T09:23:38;-5.80;30.00
8152;DHT22;4117;53.622;9.958;2022-12-18T09:26:05;-5.80;32.40
8152;DHT22;4117;53.622;9.958;2022-12-18T09:28:32;-5.80;32.50
8152;DHT22;4117;53.622;9.958;2022-12-18T09:30:59;-5.70;33.40
8152;DHT22;4117;53.622;9.958;2022-12-18T09:33:29;-5.70;33.50
8152;DHT22;4117;53.622;9.958;2022-12-18T09:35:56;-5.70;29.10
8152;DHT22;4117;53.622;9.958;2022-12-18T09:38:24;-5.60;27.50
8152;DHT22;4117;53.622;9.958;2022-12-18T09:40:53;-5.60;32.70
8152;DHT22;4117;53.622;9.958;2022-12-18T09:43:27;-5.50;34.70
8152;DHT22;4117;53.622;9.958;2022-12-18T09:46:00;-5.40;32.80
8152;DHT22;4117;53.622;9.958;2022-12-18T09:48:32;-5.30;32.50
8152;DHT22;4117;53.622;9.958;2022-12-18T09:51:04;-5.30;32.10
8152;DHT22;4117;53.622;9.958;2022-12-18T09:53:37;-5.20;30.90
8152;DHT22;4117;53.622;9.958;2022-12-18T09:56:05;-5.20;30.10
8152;DHT22;4117;53.622;9.958;2022-12-18T09:58:37;-5.10;27.60
8152;DHT22;4117;53.622;9.958;2022-12-18T10:01:10;-5.10;27.50
8152;DHT22;4117;53.622;9.958;2022-12-18T10:03:37;-5.00;27.90
8152;DHT22;4117;53.622;9.958;2022-12-18T10:06:11;-5.00;27.80
8152;DHT22;4117;53.622;9.958;2022-12-18T10:08:45;-4.90;27.70
8152;DHT22;4117;53.622;9.958;2022-12-18T10:11:34;-4.90;27.80
8152;DHT22;4117;53.622;9.958;2022-12-18T10:14:09;-4.80;27.60
8152;DHT22;4117;53.622;9.958;2022-12-18T10:16:45;-4.80;27.80
8152;DHT22;4117;53.622;9.958;2022-12-18T10:19:23;-4.80;27.80
8152;DHT22;4117;53.622;9.958;2022-12-18T10:21:59;-4.70;27.80
8152;DHT22;4117;53.622;9.958;2022-12-18T10:24:34;-4.60;25.80
8152;DHT22;4117;53.622;9.958;2022-12-18T10:27:12;-4.50;27.70
8152;DHT22;4117;53.622;9.958;2022-12-18T10:29:41;-4.50;26.60
8152;DHT22;4117;53.622;9.958;2022-12-18T10:32:14;-4.50;27.90
8152;DHT22;4117;53.622;9.958;2022-12-18T10:34:44;-4.50;26.70
8152;DHT22;4117;53.622;9.958;2022-12-18T10:37:16;-4.40;26.40
8152;DHT22;4117;53.622;9.958;2022-12-18T10:39:45;-4.40;25.20
8152;DHT22;4117;53.622;9.958;2022-12-18T10:42:16;-4.30;20.50
8152;DHT22;4117;53.622;9.958;2022-12-18T10:44:44;-4.20;18.80
8152;DHT22;4117;53.622;9.958;2022-12-18T10:47:14;-4.20;21.20
8152;DHT22;4117;53.622;9.958;2022-12-18T11:25:19;-3.50;10.20
8152;DHT22;4117;53.622;9.958;2022-12-18T11:27:52;-3.50;14.70
8152;DHT22;4117;53.622;9.958;2022-12-18T11:30:24;-3.50;14.90
8152;DHT22;4117;53.622;9.958;2022-12-18T11:32:54;-3.50;15.30
8152;DHT22;4117;53.622;9.958;2022-12-18T11:35:30;-3.40;15.30
8152;DHT22;4117;53.622;9.958;2022-12-18T11:38:02;-3.40;14.60
8152;DHT22;4117;53.622;9.958;2022-12-18T11:40:35;-3.40;16.10
8152;DHT22;4117;53.622;9.958;2022-12-18T11:43:09;-3.40;14.60
8152;DHT22;4117;53.622;9.958;2022-12-18T11:45:41;-3.30;13.70
8152;DHT22;4117;53.622;9.958;2022-12-18T11:48:14;-3.30;15.80
8152;DHT22;4117;53.622;9.958;2022-12-18T11:50:47;-3.20;15.30
8152;DHT22;4117;53.622;9.958;2022-12-18T11:53:16;-3.20;12.80
8152;DHT22;4117;53.622;9.958;2022-12-18T11:55:52;-3.10;12.50
8152;DHT22;4117;53.622;9.958;2022-12-18T11:58:29;-3.10;11.40
8152;DHT22;4117;53.622;9.958;2022-12-18T12:01:09;-3.00;10.00
8152;DHT22;4117;53.622;9.958;2022-12-18T12:04:01;-3.00;9.80
8152;DHT22;4117;53.622;9.958;2022-12-18T12:06:44;-3.00;10.20
8152;DHT22;4117;53.622;9.958;2022-12-18T12:09:18;-3.00;9.60
8152;DHT22;4117;53.622;9.958;2022-12-18T12:11:53;-3.00;10.00
8152;DHT22;4117;53.622;9.958;2022-12-18T12:14:34;-3.00;9.80
8152;DHT22;4117;53.622;9.958;2022-12-18T12:17:12;-3.00;8.80
8152;DHT22;4117;53.622;9.958;2022-12-18T12:19:48;-3.00;8.80
8152;DHT22;4117;53.622;9.958;2022-12-18T12:22:36;-3.00;8.80
8152;DHT22;4117;53.622;9.958;2022-12-18T12:25:15;-3.00;10.00
8152;DHT22;4117;53.622;9.958;2022-12-18T12:27:53;-3.00;9.40
8152;DHT22;4117;53.622;9.958;2022-12-18T12:30:32;-3.00;11.30
8152;DHT22;4117;53.622;9.958;2022-12-18T12:33:12;-2.90;9.40
8152;DHT22;4117;53.622;9.958;2022-12-18T12:35:47;-2.90;8.80
8152;DHT22;4117;53.622;9.958;2022-12-18T12:38:21;-2.90;9.20
8152;DHT22;4117;53.622;9.958;2022-12-18T12:40:52;-2.90;8.80
8152;DHT22;4117;53.622;9.958;2022-12-18T12:43:31;-2.90;8.80
8152;DHT22;4117;53.622;9.958;2022-12-18T12:46:04;-2.90;8.80
8152;DHT22;4117;53.622;9.958;2022-12-18T12:48:43;-2.80;6.00
8152;DHT22;4117;53.622;9.958;2022-12-18T12:51:16;-2.70;6.40
8152;DHT22;4117;53.622;9.958;2022-12-18T12:53:45;-2.70;7.40
8152;DHT22;4117;53.622;9.958;2022-12-18T12:56:15;-2.70;9.00
8152;DHT22;4117;53.622;9.958;2022-12-18T12:58:54;-2.60;8.50
8152;DHT22;4117;53.622;9.958;2022-12-18T13:01:28;-2.60;5.60
8152;DHT22;4117;53.622;9.958;2022-12-18T13:04:08;-2.60;3.80
8152;DHT22;4117;53.622;9.958;2022-12-18T13:06:42;-2.60;4.70
8152;DHT22;4117;53.622;9.958;2022-12-18T13:09:11;-2.60;3.60
8152;DHT22;4117;53.622;9.958;2022-12-18T13:11:39;-2.60;1.70
8152;DHT22;4117;53.622;9.958;2022-12-18T13:14:30;-2.50;2.60
8152;DHT22;4117;53.622;9.958;2022-12-18T13:17:23;-2.50;1.70
8152;DHT22;4117;53.622;9.958;2022-12-18T13:20:07;-2.50;1.80
8152;DHT22;4117;53.622;9.958;2022-12-18T13:22:37;-2.50;3.40
8152;DHT22;4117;53.622;9.958;2022-12-18T13:25:32;-2.50;3.40
8152;DHT22;4117;53.622;9.958;2022-12-18T13:28:03;-2.50;3.70
8152;DHT22;4117;53.622;9.958;2022-12-18T13:30:45;-2.50;1.60
8152;DHT22;4117;53.622;9.958;2022-12-18T13:33:40;-2.50;1.00
8152;DHT22;4117;53.622;9.958;2022-12-18T13:36:31;-2.50;1.20
8152;DHT22;4117;53.622;9.958;2022-12-18T13:39:21;-2.50;1.50
8152;DHT22;4117;53.622;9.958;2022-12-18T13:41:49;-2.60;1.00
8152;DHT22;4117;53.622;9.958;2022-12-18T13:44:25;-2.60;1.00
8152;DHT22;4117;53.622;9.958;2022-12-18T13:46:54;-2.60;1.00
8152;DHT22;4117;53.622;9.958;2022-12-18T13:49:24;-2.60;3.60
8152;DHT22;4117;53.622;9.958;2022-12-18T13:51:55;-2.70;1.00
8152;DHT22;4117;53.622;9.958;2022-12-18T13:54:28;-2.70;1.00
8152;DHT22;4117;53.622;9.958;2022-12-18T13:56:57;-2.70;1.00
8152;DHT22;4117;53.622;9.958;2022-12-18T13:59:25;-2.70;1.00
8152;DHT22;4117;53.622;9.958;2022-12-18T14:01:56;-2.70;2.00
8152;DHT22;4117;53.622;9.958;2022-12-18T14:04:26;-2.70;2.30
8152;DHT22;4117;53.622;9.958;2022-12-18T14:06:57;-2.80;1.00
8152;DHT22;4117;53.622;9.958;2022-12-18T14:09:27;-2.80;2.00
8152;DHT22;4117;53.622;9.958;2022-12-18T14:11:56;-2.80;1.00
8152;DHT22;4117;53.622;9.958;2022-12-18T14:14:37;-2.80;2.20
8152;DHT22;4117;53.622;9.958;2022-12-18T14:17:10;-2.80;1.00
8152;DHT22;4117;53.622;9.958;2022-12-18T14:19:41;-2.80;1.50
8152;DHT22;4117;53.622;9.958;2022-12-18T14:22:15;-2.80;1.30
8152;DHT22;4117;53.622;9.958;2022-12-18T14:24:42;-2.90;1.00
8152;DHT22;4117;53.622;9.958;2022-12-18T14:27:18;-2.90;1.00
8152;DHT22;4117;53.622;9.958;2022-12-18T14:29:46;-2.90;1.00
8152;DHT22;4117;53.622;9.958;2022-12-18T14:32:15;-3.00;1.00
8152;DHT22;4117;53.622;9.958;2022-12-18T14:34:44;-3.00;1.00
8152;DHT22;4117;53.622;9.958;2022-12-18T14:37:13;-3.00;1.00
8152;DHT22;4117;53.622;9.958;2022-12-18T14:39:41;-3.00;1.40
8152;DHT22;4117;53.622;9.958;2022-12-18T14:42:18;-3.00;1.80
8152;DHT22;4117;53.622;9.958;2022-12-18T14:44:45;-3.00;1.50
8152;DHT22;4117;53.622;9.958;2022-12-18T14:47:15;-3.10;1.90
8152;DHT22;4117;53.622;9.958;2022-12-18T14:49:43;-3.10;2.20
8152;DHT22;4117;53.622;9.958;2022-12-18T14:52:20;-3.10;1.00
8152;DHT22;4117;53.622;9.958;2022-12-18T14:54:49;-3.10;2.40
8152;DHT22;4117;53.622;9.958;2022-12-18T14:57:21;-3.10;1.50
8152;DHT22;4117;53.622;9.958;2022-12-18T14:59:48;-3.10;2.00
8152;DHT22;4117;53.622;9.958;2022-12-18T15:02:20;-3.20;3.00
8152;DHT22;4117;53.622;9.958;2022-12-18T15:04:53;-3.20;1.00
8152;DHT22;4117;53.622;9.958;2022-12-18T15:07:26;-3.20;1.00
8152;DHT22;4117;53.622;9.958;2022-12-18T15:10:09;-3.20;4.20
8152;DHT22;4117;53.622;9.958;2022-12-18T15:12:40;-3.20;3.30
8152;DHT22;4117;53.622;9.958;2022-12-18T15:18:12;-3.20;3.20
8152;DHT22;4117;53.622;9.958;2022-12-18T15:20:42;-3.30;3.90
8152;DHT22;4117;53.622;9.958;2022-12-18T15:23:14;-3.30;4.10
8152;DHT22;4117;53.622;9.958;2022-12-18T15:25:41;-3.30;4.00
8152;DHT22;4117;53.622;9.958;2022-12-18T15:28:19;-3.30;3.70
8152;DHT22;4117;53.622;9.958;2022-12-18T15:31:02;-3.30;4.10
8152;DHT22;4117;53.622;9.958;2022-12-18T15:33:33;-3.40;3.70
8152;DHT22;4117;53.622;9.958;2022-12-18T15:36:02;-3.30;4.50
8152;DHT22;4117;53.622;9.958;2022-12-18T15:38:30;-3.30;1.20
8152;DHT22;4117;53.622;9.958;2022-12-18T15:40:57;-3.30;4.80
8152;DHT22;4117;53.622;9.958;2022-12-18T15:43:26;-3.30;4.80
8152;DHT22;4117;53.622;9.958;2022-12-18T15:46:06;-3.30;4.80
8152;DHT22;4117;53.622;9.958;2022-12-18T15:48:40;-3.30;5.30
8152;DHT22;4117;53.622;9.958;2022-12-18T15:51:13;-3.30;5.00
8152;DHT22;4117;53.622;9.958;2022-12-18T15:53:41;-3.30;5.50
8152;DHT22;4117;53.622;9.958;2022-12-18T15:56:11;-3.30;6.20
8152;DHT22;4117;53.622;9.958;2022-12-18T15:58:56;-3.30;5.60
8152;DHT22;4117;53.622;9.958;2022-12-18T16:01:25;-3.30;5.80
8152;DHT22;4117;53.622;9.958;2022-12-18T16:03:53;-3.30;5.10
8152;DHT22;4117;53.622;9.958;2022-12-18T16:06:21;-3.30;5.80
8152;DHT22;4117;53.622;9.958;2022-12-18T16:08:48;-3.30;5.20
8152;DHT22;4117;53.622;9.958;2022-12-18T16:11:21;-3.20;5.20
8152;DHT22;4117;53.622;9.958;2022-12-18T16:14:04;-3.20;6.10
8152;DHT22;4117;53.622;9.958;2022-12-18T16:16:31;-3.20;6.00
8152;DHT22;4117;53.622;9.958;2022-12-18T16:18:59;-3.20;5.90
8152;DHT22;4117;53.622;9.958;2022-12-18T16:21:26;-3.20;6.10
8152;DHT22;4117;53.622;9.958;2022-12-18T16:23:53;-3.20;6.20
8152;DHT22;4117;53.622;9.958;2022-12-18T16:26:20;-3.20;6.10
8152;DHT22;4117;53.622;9.958;2022-12-18T16:28:47;-3.30;2.70
8152;DHT22;4117;53.622;9.958;2022-12-18T16:31:14;-3.20;5.40
8152;DHT22;4117;53.622;9.958;2022-12-18T16:33:41;-3.20;6.10
8152;DHT22;4117;53.622;9.958;2022-12-18T16:36:09;-3.20;5.90
8152;DHT22;4117;53.622;9.958;2022-12-18T16:38:36;-3.20;6.00
8152;DHT22;4117;53.622;9.958;2022-12-18T16:41:17;-3.20;6.40
8152;DHT22;4117;53.622;9.958;2022-12-18T16:44:00;-3.30;3.80
8152;DHT22;4117;53.622;9.958;2022-12-18T16:46:27;-3.20;6.10
8152;DHT22;4117;53.622;9.958;2022-12-18T16:48:56;-3.20;6.10
8152;DHT22;4117;53.622;9.958;2022-12-18T16:51:25;-3.20;6.40
8152;DHT22;4117;53.622;9.958;2022-12-18T16:53:52;-3.20;4.60
8152;DHT22;4117;53.622;9.958;2022-12-18T16:56:22;-3.20;8.60
8152;DHT22;4117;53.622;9.958;2022-12-18T16:58:53;-3.20;5.50
8152;DHT22;4117;53.622;9.958;2022-12-18T17:01:21;-3.20;5.40
8152;DHT22;4117;53.622;9.958;2022-12-18T17:03:52;-3.20;4.80
8152;DHT22;4117;53.622;9.958;2022-12-18T17:06:19;-3.20;5.00
8152;DHT22;4117;53.622;9.958;2022-12-18T17:08:52;-3.20;1.70